Time;durP1;ratioP1;P1;durP2;ratioP2;P2;SDS_P1;SDS_P2;PMS_P1;PMS_P2;Temp;Humidity;BMP_temperature;BMP_pressure;BME280_temperature;BME280_humidity;BME280_pressure;Samples;Min_cycle;Max_cycle;Signal;HPM_P1;HPM_P2
2023/01/22 00:01:57;;;;;;;0.60;0.50;;;;;;;10.61;74.45;99452.25;4926781;29;20031;-92
2023/01/22 00:04:22;;;;;;;1.17;0.65;;;;;;;10.59;74.60;99444.41;4927232;29;20118;-92
2023/01/22 00:06:48;;;;;;;1.25;0.50;;;;;;;10.56;74.61;99433.38;4926892;29;20042;-92
2023/01/22 00:09:14;;;;;;;2.72;0.82;;;;;;;10.69;74.86;99455.22;4927463;29;20035;-92
2023/01/22 00:11:40;;;;;;;0.47;0.45;;;;;;;10.84;74.46;99462.50;4926557;29;20042;-92
2023/01/22 00:14:06;;;;;;;1.33;0.40;;;;;;;10.67;74.01;99456.56;4927341;29;20035;-93
2023/01/22 00:16:31;;;;;;;1.13;0.50;;;;;;;10.84;73.63;99473.28;4927494;29;20133;-93
2023/01/22 00:18:57;;;;;;;1.08;0.50;;;;;;;10.79;73.54;99467.06;4929196;29;20109;-93
2023/01/22 00:21:23;;;;;;;1.20;0.70;;;;;;;10.77;74.28;99472.75;4911240;29;20039;-95
2023/01/22 00:23:48;;;;;;;1.33;0.75;;;;;;;10.75;74.66;99496.44;4911112;29;20066;-93
2023/01/22 00:26:15;;;;;;;2.53;0.70;;;;;;;10.80;75.04;99499.13;4926729;29;20042;-94
2023/01/22 00:28:42;;;;;;;0.65;0.50;;;;;;;10.83;74.32;99484.31;4926189;29;20042;-95
2023/01/22 00:31:08;;;;;;;0.88;0.68;;;;;;;10.84;74.44;99475.16;4927331;29;20039;-94
2023/01/22 00:33:34;;;;;;;1.67;0.95;;;;;;;10.96;74.48;99485.66;4927698;29;20391;-95
2023/01/22 00:36:06;;;;;;;3.97;0.88;;;;;;;10.99;74.29;99479.75;4911138;29;20049;-95
2023/01/22 00:38:31;;;;;;;1.42;0.60;;;;;;;10.94;74.58;99477.88;4911063;29;20039;-94
2023/01/22 00:41:04;;;;;;;3.10;1.10;;;;;;;10.94;74.46;99471.69;4910150;29;20043;-95
2023/01/22 00:43:30;;;;;;;0.95;0.63;;;;;;;10.85;74.89;99472.22;4927100;29;20046;-95
2023/01/22 00:45:55;;;;;;;3.60;0.57;;;;;;;10.87;74.68;99483.53;4911054;29;20035;-95
2023/01/22 00:48:21;;;;;;;2.90;0.73;;;;;;;10.72;75.36;99462.75;4925427;29;20134;-94
2023/01/22 00:50:47;;;;;;;2.47;1.35;;;;;;;10.81;75.57;99467.59;4909517;29;20039;-95
2023/01/22 00:53:12;;;;;;;1.35;0.88;;;;;;;10.92;74.53;99480.81;4927010;29;20039;-95
2023/01/22 00:55:38;;;;;;;1.75;1.00;;;;;;;10.87;74.69;99471.91;4926120;29;20038;-94
2023/01/22 00:58:03;;;;;;;3.05;1.00;;;;;;;10.99;75.05;99504.00;4925088;29;20051;-95
2023/01/22 01:00:29;;;;;;;3.72;1.50;;;;;;;10.96;75.26;99499.13;4910429;29;20098;-95
2023/01/22 01:05:38;;;;;;;5.03;1.35;;;;;;;10.96;75.13;99505.34;4931150;29;20098;-96
2023/01/22 01:08:04;;;;;;;3.38;1.20;;;;;;;10.80;75.89;99485.66;4910465;29;20042;-94
2023/01/22 01:10:29;;;;;;;2.60;1.63;;;;;;;10.77;76.07;99483.50;4908835;29;20035;-95
2023/01/22 01:12:55;;;;;;;2.45;1.00;;;;;;;10.80;76.36;99492.94;4910422;29;20046;-96
2023/01/22 01:15:20;;;;;;;3.53;1.20;;;;;;;10.89;75.41;99502.09;4926280;29;20040;-94
2023/01/22 01:17:46;;;;;;;3.72;1.10;;;;;;;10.84;76.39;99489.44;4909580;29;20066;-95
2023/01/22 01:20:11;;;;;;;6.07;1.45;;;;;;;10.77;76.45;99471.91;4924641;29;20042;-96
2023/01/22 01:22:37;;;;;;;2.50;1.27;;;;;;;10.69;77.15;99462.50;4926167;29;20039;-96
2023/01/22 01:25:03;;;;;;;2.58;1.17;;;;;;;10.66;76.86;99465.69;4925756;29;20041;-96
2023/01/22 01:27:30;;;;;;;2.22;1.20;;;;;;;10.85;76.97;99479.47;4926143;29;20102;-95
2023/01/22 01:29:56;;;;;;;3.83;1.42;;;;;;;10.83;77.36;99477.06;4908684;29;20028;-95
2023/01/22 01:32:22;;;;;;;2.47;1.52;;;;;;;10.75;77.37;99468.66;4923787;29;20047;-96
2023/01/22 01:34:48;;;;;;;2.45;1.52;;;;;;;10.76;77.40;99456.84;4924247;29;20054;-95
2023/01/22 01:37:14;;;;;;;3.10;1.42;;;;;;;10.70;77.26;99439.84;4908922;29;20046;-95
2023/01/22 01:39:40;;;;;;;2.80;1.10;;;;;;;10.61;76.99;99444.16;4910461;29;20047;-96
2023/01/22 01:42:06;;;;;;;1.35;1.00;;;;;;;10.53;77.19;99437.41;4910606;29;20039;-96
2023/01/22 01:44:35;;;;;;;2.70;1.15;;;;;;;10.66;76.56;99450.34;4910722;29;20091;-96
2023/01/22 01:47:04;;;;;;;3.63;1.20;;;;;;;10.67;76.26;99443.09;4929738;29;20054;-96
2023/01/22 01:49:47;;;;;;;2.00;0.95;;;;;;;10.70;76.39;99446.03;4912187;29;20066;-96
2023/01/22 01:52:12;;;;;;;2.25;1.33;;;;;;;10.62;75.85;99427.72;4933365;29;20043;-95
2023/01/22 01:54:45;;;;;;;1.40;1.10;;;;;;;10.59;76.11;99439.03;4915465;29;20078;-96
2023/01/22 01:57:30;;;;;;;3.38;1.00;;;;;;;10.63;75.21;99440.13;4911142;29;20058;-96
2023/01/22 01:59:56;;;;;;;2.00;1.33;;;;;;;10.69;76.04;99444.44;4943292;29;20050;-96
2023/01/22 02:02:22;;;;;;;4.47;1.83;;;;;;;10.74;75.59;99453.59;4926686;29;20039;-96
2023/01/22 02:04:48;;;;;;;4.13;1.85;;;;;;;10.57;75.85;99437.69;4925880;29;20031;-96
2023/01/22 02:07:14;;;;;;;2.47;1.48;;;;;;;10.71;76.34;99455.75;4926441;29;20035;-96
2023/01/22 02:09:45;;;;;;;2.67;1.83;;;;;;;10.68;76.70;99448.19;4927919;29;20055;-96
2023/01/22 02:12:13;;;;;;;5.90;1.88;;;;;;;10.60;77.31;99432.56;4912733;29;20031;-96
2023/01/22 02:14:42;;;;;;;2.83;1.80;;;;;;;10.69;77.17;99460.59;4927148;29;20031;-96
2023/01/22 02:17:13;;;;;;;6.15;2.20;;;;;;;10.58;77.23;99463.53;4911100;29;20062;-96
2023/01/22 02:19:39;;;;;;;7.65;2.83;;;;;;;10.50;77.59;99437.97;4912832;29;20035;-96
2023/01/22 02:22:13;;;;;;;3.05;1.80;;;;;;;10.53;77.81;99442.78;4912553;29;20062;-96
2023/01/22 02:24:41;;;;;;;3.00;2.00;;;;;;;10.67;77.00;99456.56;4927337;29;20126;-96
2023/01/22 02:27:07;;;;;;;6.25;2.25;;;;;;;10.78;77.03;99468.94;4928641;29;20482;-96
2023/01/22 02:29:34;;;;;;;3.35;1.95;;;;;;;10.88;76.68;99479.75;4931407;29;20046;-96
2023/01/22 02:32:00;;;;;;;3.60;1.90;;;;;;;10.79;76.53;99454.44;4936491;29;20051;-96
2023/01/22 02:34:30;;;;;;;4.53;2.05;;;;;;;10.77;76.41;99458.44;4935762;29;20043;-96
2023/01/22 02:36:56;;;;;;;3.13;1.70;;;;;;;10.77;76.58;99453.06;4921016;29;20406;-96
2023/01/22 02:39:27;;;;;;;2.72;1.65;;;;;;;10.74;76.48;99462.47;4936091;29;20035;-96
2023/01/22 02:42:03;;;;;;;3.10;1.70;;;;;;;10.85;76.98;99477.59;4950389;29;20035;-95
2023/01/22 02:44:29;;;;;;;2.88;1.75;;;;;;;10.76;76.73;99464.91;4939362;29;20038;-95
2023/01/22 02:46:54;;;;;;;6.22;1.90;;;;;;;10.73;77.24;99458.19;4934472;28;20116;-95
2023/01/22 02:49:20;;;;;;;3.40;1.85;;;;;;;10.78;77.19;99460.06;4944058;29;20035;-96
2023/01/22 02:51:45;;;;;;;2.50;1.80;;;;;;;10.77;78.12;99451.19;4943544;28;20039;-96
2023/01/22 02:54:11;;;;;;;3.45;2.20;;;;;;;10.76;78.14;99452.25;4930883;28;20563;-95
2023/01/22 02:56:36;;;;;;;3.13;1.95;;;;;;;10.74;77.05;99432.84;4931059;28;20074;-95
2023/01/22 02:59:03;;;;;;;2.72;1.85;;;;;;;10.81;77.57;99437.97;4928024;28;20039;-96
2023/01/22 03:01:29;;;;;;;4.32;2.45;;;;;;;10.71;77.89;99434.22;4939648;28;20083;-96
2023/01/22 03:03:56;;;;;;;3.28;2.17;;;;;;;10.81;76.99;99456.84;4924009;28;20030;-96
2023/01/22 03:06:24;;;;;;;3.63;2.20;;;;;;;10.79;76.39;99459.81;4941061;28;20038;-95
2023/01/22 03:08:54;;;;;;;2.60;1.80;;;;;;;10.87;76.77;99477.31;4960109;28;20035;-96
2023/01/22 03:11:20;;;;;;;2.70;1.75;;;;;;;10.87;76.45;99469.22;4930545;28;20049;-95
2023/01/22 03:21:58;;;;;;;3.60;1.98;;;;;;;10.86;76.72;99464.94;4943813;28;20169;-95
2023/01/22 03:24:24;;;;;;;2.25;1.60;;;;;;;10.82;76.17;99453.88;4928867;28;20039;-95
2023/01/22 03:26:49;;;;;;;4.63;1.98;;;;;;;10.98;76.75;99481.66;4926776;29;20043;-95
2023/01/22 03:29:15;;;;;;;2.13;1.48;;;;;;;10.99;76.34;99482.44;4911973;29;20395;-96
2023/01/22 03:31:41;;;;;;;3.28;1.77;;;;;;;10.91;75.78;99464.91;4910378;29;20047;-95
2023/01/22 03:34:06;;;;;;;5.53;1.52;;;;;;;11.06;76.18;99489.19;4923821;29;20031;-93
2023/01/22 03:36:32;;;;;;;2.38;1.52;;;;;;;10.89;76.27;99461.69;4940798;28;20027;-95
2023/01/22 03:38:57;;;;;;;2.47;1.55;;;;;;;11.03;76.83;99465.47;4926204;28;20031;-95
2023/01/22 03:41:22;;;;;;;2.42;1.52;;;;;;;10.92;76.33;99455.78;4925890;28;20031;-94
2023/01/22 03:43:48;;;;;;;3.85;1.60;;;;;;;10.92;76.68;99451.19;4925320;28;20094;-92
2023/01/22 03:46:15;;;;;;;2.58;1.45;;;;;;;10.93;76.46;99454.69;4927183;28;20050;-92
2023/01/22 03:48:40;;;;;;;2.78;1.52;;;;;;;10.95;76.95;99454.44;4943192;28;20030;-91
2023/01/22 03:51:10;;;;;;;4.18;1.77;;;;;;;10.95;77.12;99460.63;4942633;28;20054;-92
2023/01/22 03:53:35;;;;;;;4.85;1.48;;;;;;;10.92;75.54;99458.47;4942626;28;20497;-92
2023/01/22 03:56:06;;;;;;;2.63;1.98;;;;;;;10.99;75.62;99453.63;4923073;28;20039;-93
2023/01/22 03:58:31;;;;;;;1.92;1.60;;;;;;;10.95;75.97;99465.19;4942678;28;20042;-92
2023/01/22 04:00:59;;;;;;;3.65;1.85;;;;;;;10.90;76.07;99458.72;4931943;28;20101;-93
2023/01/22 04:03:26;;;;;;;5.80;2.10;;;;;;;10.96;76.26;99483.81;4924221;28;20050;-92
2023/01/22 04:05:51;;;;;;;2.22;1.55;;;;;;;10.86;76.67;99475.72;4939377;28;20039;-92
2023/01/22 04:08:17;;;;;;;2.22;1.50;;;;;;;10.84;76.51;99469.78;4940694;28;20097;-91
2023/01/22 04:10:42;;;;;;;3.83;1.85;;;;;;;10.86;76.12;99465.72;4941860;28;20046;-92
2023/01/22 04:13:08;;;;;;;4.03;2.20;;;;;;;11.00;75.95;99486.75;4939856;28;20118;-91
2023/01/22 04:15:33;;;;;;;3.05;1.75;;;;;;;11.07;75.80;99503.47;4939318;28;20572;-91
2023/01/22 04:17:59;;;;;;;2.42;1.67;;;;;;;11.02;75.95;99490.81;4941874;28;20141;-91
2023/01/22 04:20:24;;;;;;;3.15;1.67;;;;;;;11.02;75.49;99496.19;4926849;28;20120;-92
2023/01/22 04:22:50;;;;;;;4.13;1.77;;;;;;;11.00;75.85;99492.97;4921969;28;20039;-91
2023/01/22 04:25:16;;;;;;;7.05;1.90;;;;;;;11.06;75.28;99505.38;4943301;28;20477;-91
2023/01/22 04:27:43;;;;;;;2.65;1.73;;;;;;;11.04;75.80;99501.31;4939885;29;20043;-91
2023/01/22 04:30:10;;;;;;;3.22;1.67;;;;;;;11.05;75.49;99506.44;4927996;28;20051;-92
2023/01/22 04:32:35;;;;;;;4.72;1.73;;;;;;;11.10;75.63;99509.16;4924123;29;20391;-91
2023/01/22 04:35:02;;;;;;;2.67;1.88;;;;;;;11.13;75.43;99510.50;4908313;28;20034;-92
2023/01/22 04:37:28;;;;;;;4.57;1.60;;;;;;;11.09;75.90;99507.50;4925456;28;20042;-91
2023/01/22 04:39:54;;;;;;;5.45;1.83;;;;;;;11.08;76.07;99497.00;4942952;28;20046;-92
2023/01/22 04:42:19;;;;;;;4.03;1.92;;;;;;;11.06;76.22;99494.59;4921130;29;20094;-91
2023/01/22 04:44:45;;;;;;;2.70;1.92;;;;;;;11.05;75.82;99495.66;4908859;29;20035;-93
2023/01/22 04:47:10;;;;;;;2.30;1.90;;;;;;;11.10;75.88;99511.00;4935599;28;20556;-91
2023/01/22 04:49:35;;;;;;;7.63;2.03;;;;;;;11.15;75.73;99529.88;4940293;29;20486;-92
2023/01/22 04:52:01;;;;;;;3.40;1.90;;;;;;;11.10;75.55;99530.69;4939269;28;20038;-90
2023/01/22 04:54:26;;;;;;;5.75;1.67;;;;;;;11.11;75.22;99520.72;4942560;28;20109;-91
2023/01/22 04:56:52;;;;;;;3.85;1.70;;;;;;;11.11;75.60;99516.13;4932772;29;20054;-91
2023/01/22 04:59:17;;;;;;;2.83;2.40;;;;;;;11.11;75.22;99513.44;4923467;29;20521;-91
2023/01/22 05:01:43;;;;;;;3.35;1.83;;;;;;;11.18;75.63;99525.84;4919539;29;20501;-91
2023/01/22 05:04:09;;;;;;;4.80;2.13;;;;;;;11.27;75.58;99537.72;4921111;29;20490;-91
2023/01/22 05:06:34;;;;;;;5.40;1.63;;;;;;;11.19;75.61;99535.56;4902936;29;20038;-91
2023/01/22 05:09:00;;;;;;;4.18;1.65;;;;;;;11.28;75.33;99550.91;4922890;29;20063;-91
2023/01/22 05:11:25;;;;;;;2.10;1.60;;;;;;;11.23;74.80;99533.94;4905554;29;20038;-91
2023/01/22 05:13:51;;;;;;;2.58;1.80;;;;;;;11.24;74.89;99540.94;4904402;29;20122;-91
2023/01/22 05:16:17;;;;;;;3.65;1.63;;;;;;;11.00;74.55;99530.69;4939052;29;20041;-91
2023/01/22 05:18:42;;;;;;;3.67;1.70;;;;;;;11.08;75.21;99535.56;4923698;29;20038;-92
2023/01/22 05:21:08;;;;;;;7.47;1.88;;;;;;;11.26;75.36;99546.88;4919898;29;20035;-92
2023/01/22 05:23:33;;;;;;;4.85;1.88;;;;;;;11.13;75.83;99524.75;4922048;29;20046;-91
2023/01/22 05:25:58;;;;;;;3.75;2.50;;;;;;;11.13;75.61;99526.66;4920624;29;20024;-91
2023/01/22 05:28:24;;;;;;;4.20;1.90;;;;;;;11.08;75.39;99513.16;4937259;29;20039;-91
2023/01/22 05:30:49;;;;;;;5.95;1.80;;;;;;;11.13;75.29;99519.38;4922773;29;20455;-91
2023/01/22 05:33:15;;;;;;;4.68;2.30;;;;;;;11.17;75.24;99527.75;4907696;29;20043;-91
2023/01/22 05:35:40;;;;;;;4.40;1.67;;;;;;;11.20;74.67;99529.88;4907790;29;20035;-91
2023/01/22 05:38:06;;;;;;;4.32;2.00;;;;;;;11.09;75.25;99530.97;4920320;29;20047;-91
2023/01/22 05:40:31;;;;;;;4.00;2.28;;;;;;;11.22;74.54;99537.72;4903978;29;20043;-91
2023/01/22 05:42:57;;;;;;;4.97;2.38;;;;;;;11.26;74.54;99539.59;4917371;29;20549;-92
2023/01/22 05:45:22;;;;;;;3.78;1.98;;;;;;;11.34;74.82;99551.72;4907498;29;20027;-92
2023/01/22 05:47:52;;;;;;;2.78;2.05;;;;;;;11.22;74.84;99535.81;4898900;29;20042;-91
2023/01/22 05:50:18;;;;;;;7.57;1.90;;;;;;;11.15;74.93;99537.97;4903829;29;20063;-91
2023/01/22 05:52:43;;;;;;;6.05;2.45;;;;;;;11.17;74.88;99535.81;4922409;29;20106;-92
2023/01/22 05:55:09;;;;;;;6.97;1.80;;;;;;;11.19;75.45;99555.22;4919420;29;20573;-92
2023/01/22 05:57:35;;;;;;;10.00;1.73;;;;;;;11.20;74.75;99547.94;4918211;28;20047;-91
2023/01/22 06:00:01;;;;;;;2.50;1.90;;;;;;;11.22;74.83;99560.06;4922007;28;20122;-91
2023/01/22 06:02:26;;;;;;;4.45;1.85;;;;;;;11.36;74.37;99573.03;4925771;28;20037;-92
2023/01/22 06:04:52;;;;;;;4.43;1.83;;;;;;;11.41;74.32;99597.28;4925660;28;20509;-91
2023/01/22 06:07:17;;;;;;;2.67;1.63;;;;;;;11.38;74.26;99590.56;4941831;28;20042;-91
2023/01/22 06:09:43;;;;;;;4.55;2.28;;;;;;;11.32;74.49;99587.03;4924651;28;20548;-91
2023/01/22 06:12:08;;;;;;;2.33;1.83;;;;;;;11.36;74.37;99587.31;4941479;28;20031;-91
2023/01/22 06:14:34;;;;;;;3.25;1.60;;;;;;;11.33;74.18;99593.25;4923913;28;20046;-91
2023/01/22 06:17:00;;;;;;;7.85;2.20;;;;;;;11.27;74.12;99584.34;4926306;28;20031;-91
2023/01/22 06:19:26;;;;;;;4.38;2.20;;;;;;;11.37;74.39;99607.00;4913118;29;20031;-92
2023/01/22 06:21:51;;;;;;;3.85;2.05;;;;;;;11.36;74.73;99622.38;4924180;28;20026;-92
2023/01/22 06:24:17;;;;;;;3.45;2.08;;;;;;;11.44;74.09;99634.53;4948905;28;20552;-92
2023/01/22 06:26:42;;;;;;;7.25;4.07;;;;;;;11.42;74.37;99634.78;4947718;28;20015;-93
2023/01/22 06:29:08;;;;;;;3.67;2.40;;;;;;;11.36;74.71;99630.44;4933746;28;20034;-93
2023/01/22 06:31:34;;;;;;;6.38;2.25;;;;;;;11.24;75.16;99643.38;4946782;28;20031;-92
2023/01/22 06:33:59;;;;;;;6.10;2.03;;;;;;;11.11;75.39;99637.41;4914372;29;20086;-92
2023/01/22 06:36:24;;;;;;;5.68;1.85;;;;;;;11.04;75.25;99642.25;4920532;28;20022;-93
2023/01/22 06:38:50;;;;;;;5.05;1.90;;;;;;;11.15;75.48;99651.16;4929550;29;20042;-93
2023/01/22 06:41:16;;;;;;;3.63;1.77;;;;;;;11.27;75.37;99672.50;4918444;28;20046;-92
2023/01/22 06:43:42;;;;;;;7.38;1.70;;;;;;;11.24;75.57;99667.63;4945124;29;20039;-93
2023/01/22 06:46:07;;;;;;;3.22;1.40;;;;;;;11.30;75.70;99669.25;4951378;28;20084;-92
2023/01/22 06:48:32;;;;;;;2.72;1.90;;;;;;;11.29;75.51;99663.06;4948205;28;20031;-93
2023/01/22 06:50:58;;;;;;;2.33;1.83;;;;;;;11.38;75.73;99670.63;4946595;28;20109;-93
2023/01/22 06:53:24;;;;;;;3.65;1.90;;;;;;;11.36;75.90;99657.41;4948005;28;20138;-93
2023/01/22 06:55:50;;;;;;;8.32;2.90;;;;;;;11.48;75.86;99676.84;4930962;28;20063;-95
2023/01/22 06:58:16;;;;;;;2.70;1.70;;;;;;;11.49;75.75;99678.47;4949833;28;20501;-94
2023/01/22 07:00:41;;;;;;;2.03;1.58;;;;;;;11.52;74.96;99680.63;4930387;28;20450;-95
2023/01/22 07:03:07;;;;;;;4.18;1.92;;;;;;;11.55;75.34;99675.78;4945685;28;20098;-94
2023/01/22 07:05:33;;;;;;;5.28;3.10;;;;;;;11.58;75.82;99689.56;4945584;29;20063;-95
2023/01/22 07:07:59;;;;;;;9.13;2.30;;;;;;;11.55;75.77;99675.78;4932110;28;20031;-95
2023/01/22 07:10:24;;;;;;;5.03;2.72;;;;;;;11.52;75.41;99672.53;4950278;28;20057;-95
2023/01/22 07:12:53;;;;;;;5.45;1.90;;;;;;;11.65;75.03;99689.28;4949156;28;20047;-95
2023/01/22 07:15:18;;;;;;;5.40;2.42;;;;;;;11.72;74.70;99696.06;4949143;28;20107;-95
2023/01/22 07:17:49;;;;;;;2.88;1.80;;;;;;;11.65;73.93;99695.50;4942478;29;20508;-94
2023/01/22 07:20:18;;;;;;;4.90;2.00;;;;;;;11.61;73.55;99683.63;4915119;29;20038;-95
2023/01/22 07:22:44;;;;;;;4.32;1.95;;;;;;;11.70;73.49;99690.13;4925627;29;20058;-95
2023/01/22 07:25:09;;;;;;;8.90;4.20;;;;;;;11.71;73.68;99693.63;4945452;29;20035;-95
2023/01/22 07:27:37;;;;;;;14.50;10.85;;;;;;;11.72;73.82;99696.06;4945744;29;20042;-95
2023/01/22 07:30:03;;;;;;;9.48;5.22;;;;;;;11.80;74.04;99697.38;4959194;28;20186;-94
2023/01/22 07:32:30;;;;;;;5.65;4.07;;;;;;;11.86;73.15;99704.41;4927361;29;20031;-93
2023/01/22 07:34:55;;;;;;;11.05;4.35;;;;;;;11.74;73.15;99698.47;4926644;29;20488;-94
2023/01/22 07:37:21;;;;;;;5.22;3.42;;;;;;;11.96;72.67;99722.53;4946075;28;20039;-94
2023/01/22 07:39:46;;;;;;;6.22;3.13;;;;;;;12.01;72.82;99727.13;4947085;28;20038;-94
2023/01/22 07:42:14;;;;;;;5.88;2.88;;;;;;;11.76;72.80;99704.41;4947240;28;20038;-95
2023/01/22 07:44:40;;;;;;;10.45;5.82;;;;;;;11.86;72.96;99709.81;4947108;28;20035;-94
2023/01/22 07:47:05;;;;;;;13.75;8.73;;;;;;;11.92;73.65;99719.56;4946454;28;20030;-93
2023/01/22 07:49:31;;;;;;;23.95;16.15;;;;;;;11.99;72.94;99726.56;4943315;28;20098;-92
2023/01/22 07:51:56;;;;;;;13.15;7.03;;;;;;;11.96;73.36;99722.53;4930129;28;20042;-93
2023/01/22 07:54:35;;;;;;;17.50;6.70;;;;;;;12.16;72.28;99748.75;4939209;28;20039;-96
2023/01/22 07:57:02;;;;;;;27.08;11.30;;;;;;;12.10;72.12;99736.31;4959737;28;20042;-93
2023/01/22 07:59:28;;;;;;;27.83;12.88;;;;;;;12.18;71.67;99748.44;4973289;28;20039;-94
2023/01/22 08:01:54;;;;;;;19.05;7.43;;;;;;;12.12;71.47;99739.56;4942826;29;20031;-94
2023/01/22 08:04:20;;;;;;;6.10;3.35;;;;;;;11.99;71.53;99727.38;4943320;28;20051;-95
2023/01/22 08:06:45;;;;;;;8.98;4.60;;;;;;;12.11;72.04;99749.53;4943565;28;20050;-95
2023/01/22 08:09:11;;;;;;;11.57;6.57;;;;;;;12.07;72.18;99731.44;4921956;28;20046;-95
2023/01/22 08:11:36;;;;;;;7.53;3.85;;;;;;;12.17;71.49;99755.75;4946379;28;20031;-94
2023/01/22 08:14:02;;;;;;;23.58;12.10;;;;;;;12.10;71.31;99736.31;4926983;29;20093;-94
2023/01/22 08:16:27;;;;;;;13.18;7.38;;;;;;;12.21;71.39;99758.72;4942797;29;20035;-94
2023/01/22 08:18:54;;;;;;;12.52;7.85;;;;;;;12.22;71.98;99754.94;4928712;28;20022;-94
2023/01/22 08:21:19;;;;;;;11.50;6.45;;;;;;;12.23;72.47;99756.56;4929699;28;20038;-95
2023/01/22 08:23:45;;;;;;;10.52;5.88;;;;;;;12.24;72.88;99764.41;4930853;28;20039;-96
2023/01/22 08:26:12;;;;;;;9.57;4.93;;;;;;;12.36;73.24;99771.41;4937612;28;20029;-96
2023/01/22 08:28:41;;;;;;;3.03;2.15;;;;;;;12.45;72.42;99775.19;4970346;28;20493;-96
2023/01/22 08:31:07;;;;;;;5.03;3.20;;;;;;;12.33;72.33;99754.66;4938452;28;20039;-94
2023/01/22 08:33:32;;;;;;;2.72;2.20;;;;;;;12.55;71.35;99758.97;4926656;29;20050;-94
2023/01/22 08:35:58;;;;;;;3.92;2.20;;;;;;;12.65;69.89;99761.66;4935086;28;20039;-95
2023/01/22 08:38:23;;;;;;;3.45;1.60;;;;;;;12.69;67.52;99762.72;4922784;29;20035;-93
2023/01/22 08:40:50;;;;;;;5.68;1.45;;;;;;;12.67;68.17;99783.00;4921265;29;20042;-94
2023/01/22 08:43:15;;;;;;;2.45;1.50;;;;;;;12.71;68.08;99786.78;4932987;29;20517;-94
2023/01/22 08:45:41;;;;;;;2.70;1.80;;;;;;;12.56;68.68;99776.81;4925008;29;20031;-94
2023/01/22 08:48:07;;;;;;;3.75;1.70;;;;;;;12.55;68.97;99780.56;4927227;29;20478;-94
2023/01/22 08:50:35;;;;;;;4.63;1.60;;;;;;;12.59;69.96;99776.25;4926674;29;20038;-94
2023/01/22 08:53:00;;;;;;;2.83;1.80;;;;;;;12.75;69.83;99790.56;4925727;29;20150;-94
2023/01/22 08:55:28;;;;;;;6.85;3.33;;;;;;;12.70;69.55;99771.63;4925483;29;20473;-95
2023/01/22 08:57:54;;;;;;;3.42;1.50;;;;;;;12.67;68.15;99775.69;4926599;29;20071;-95
2023/01/22 09:00:20;;;;;;;2.50;1.58;;;;;;;12.64;68.57;99794.38;4910963;29;20046;-94
2023/01/22 09:02:46;;;;;;;3.38;1.20;;;;;;;12.68;68.65;99801.66;4926175;29;20414;-93
2023/01/22 09:05:11;;;;;;;2.13;1.20;;;;;;;12.65;68.35;99806.78;4925945;29;20047;-93
2023/01/22 09:07:37;;;;;;;5.80;1.55;;;;;;;12.76;67.85;99794.88;4927258;28;20426;-94
2023/01/22 09:10:06;;;;;;;2.60;1.73;;;;;;;12.88;68.95;99805.41;4925958;28;20034;-94
2023/01/22 09:12:35;;;;;;;1.77;1.23;;;;;;;12.78;68.30;99808.91;4928561;28;20510;-93
2023/01/22 09:15:01;;;;;;;7.82;1.40;;;;;;;12.69;68.49;99783.53;4929486;28;20485;-94
2023/01/22 09:17:27;;;;;;;2.85;1.40;;;;;;;12.71;68.39;99803.78;4945023;28;20035;-93
2023/01/22 09:19:52;;;;;;;3.55;1.65;;;;;;;12.64;68.88;99799.78;4943954;28;20090;-94
2023/01/22 09:22:19;;;;;;;2.78;1.70;;;;;;;12.43;69.28;99778.16;4933517;28;20034;-95
2023/01/22 09:24:44;;;;;;;3.30;1.98;;;;;;;12.57;69.29;99781.09;4944059;28;20037;-95
2023/01/22 09:27:10;;;;;;;2.08;1.48;;;;;;;12.70;69.05;99807.59;4945176;28;20046;-94
2023/01/22 09:29:36;;;;;;;3.13;1.55;;;;;;;12.63;68.84;99798.94;4927838;28;20121;-94
2023/01/22 09:32:02;;;;;;;3.72;1.58;;;;;;;12.71;69.35;99800.28;4926332;29;20141;-94
2023/01/22 09:34:27;;;;;;;4.75;1.65;;;;;;;12.74;70.37;99791.63;4924744;29;20035;-94
2023/01/22 09:36:53;;;;;;;3.75;2.10;;;;;;;12.74;70.45;99794.31;4924889;29;20035;-94
2023/01/22 09:39:18;;;;;;;3.63;2.15;;;;;;;12.69;70.29;99797.84;4924696;29;20414;-94
2023/01/22 09:41:49;;;;;;;3.22;2.30;;;;;;;12.79;70.25;99807.03;4924654;29;20043;-94
2023/01/22 09:44:21;;;;;;;2.35;1.70;;;;;;;12.73;69.81;99790.81;4927681;28;20053;-94
2023/01/22 09:46:55;;;;;;;3.63;1.95;;;;;;;12.89;69.91;99809.72;4929166;28;20034;-94
2023/01/22 09:49:23;;;;;;;4.05;2.67;;;;;;;12.74;68.90;99797.88;4943887;28;20062;-94
2023/01/22 09:51:57;;;;;;;4.93;3.47;;;;;;;12.60;69.24;99804.91;4941080;28;20042;-94
2023/01/22 09:54:23;;;;;;;2.70;1.73;;;;;;;12.64;69.68;99802.47;4943877;28;20083;-94
2023/01/22 09:56:50;;;;;;;4.50;3.60;;;;;;;12.62;69.40;99796.53;4924980;28;20078;-95
2023/01/22 09:59:21;;;;;;;1.98;1.30;;;;;;;12.44;68.90;99801.38;4924645;29;20035;-94
2023/01/22 10:02:11;;;;;;;2.22;1.20;;;;;;;12.53;69.15;99799.78;4940815;29;20039;-96
2023/01/22 10:04:40;;;;;;;1.88;1.02;;;;;;;12.42;68.22;99789.22;4939768;28;20047;-95
2023/01/22 10:07:08;;;;;;;4.25;1.45;;;;;;;12.57;69.01;99774.91;4941673;28;20034;-96
2023/01/22 10:09:34;;;;;;;2.63;1.40;;;;;;;12.68;68.58;99774.63;4928401;28;20046;-96
2023/01/22 10:12:04;;;;;;;2.88;1.48;;;;;;;12.83;68.57;99773.00;4941600;28;20130;-94
2023/01/22 10:14:29;;;;;;;3.38;1.85;;;;;;;12.93;68.40;99767.56;4937240;28;20043;-93
2023/01/22 10:16:57;;;;;;;3.33;2.13;;;;;;;12.89;69.05;99759.19;4929016;29;20046;-96
2023/01/22 10:19:26;;;;;;;5.85;2.85;;;;;;;12.99;68.51;99760.22;4913228;29;20063;-96
2023/01/22 10:22:04;;;;;;;4.03;2.83;;;;;;;12.97;69.66;99746.19;4913850;29;20514;-96
2023/01/22 10:24:30;;;;;;;4.93;2.72;;;;;;;12.97;68.96;99743.47;4928153;29;20035;-96
2023/01/22 10:26:57;;;;;;;3.65;2.40;;;;;;;13.19;68.98;99762.06;4911037;29;20533;-95
2023/01/22 10:29:29;;;;;;;4.68;2.60;;;;;;;13.28;68.95;99763.94;4910039;29;20482;-94
2023/01/22 10:31:58;;;;;;;5.07;3.03;;;;;;;13.19;67.68;99754.75;4941136;29;20039;-95
2023/01/22 10:34:29;;;;;;;3.65;2.17;;;;;;;13.31;67.66;99759.88;4910083;29;20478;-95
2023/01/22 10:36:58;;;;;;;4.82;2.20;;;;;;;13.28;67.93;99749.56;4940015;29;20422;-95
2023/01/22 10:39:23;;;;;;;3.88;2.03;;;;;;;13.41;67.82;99759.84;4925641;29;20036;-94
2023/01/22 10:41:49;;;;;;;2.78;1.77;;;;;;;13.32;66.99;99762.31;4924233;29;20102;-95
2023/01/22 10:44:20;;;;;;;1.75;1.30;;;;;;;13.41;65.38;99757.16;4924944;29;20067;-94
2023/01/22 10:46:48;;;;;;;5.75;4.40;;;;;;;13.38;64.65;99754.97;4924548;29;20031;-96
2023/01/22 10:49:16;;;;;;;3.35;2.75;;;;;;;13.61;65.25;99779.75;4923261;28;20047;-95
2023/01/22 10:51:44;;;;;;;2.33;1.42;;;;;;;13.64;65.28;99760.28;4943367;28;20053;-94
2023/01/22 10:54:44;;;;;;;2.45;1.40;;;;;;;13.81;65.48;99782.38;4943258;28;20041;-95
2023/01/22 10:57:27;;;;;;;4.18;1.92;;;;;;;13.73;66.27;99786.47;4951050;28;20055;-93
2023/01/22 11:00:12;;;;;;;1.92;1.17;;;;;;;13.68;66.70;99780.28;4960019;28;20091;-94
2023/01/22 11:02:45;;;;;;;1.90;1.20;;;;;;;13.39;66.45;99775.53;4949885;28;20074;-95
2023/01/22 11:05:14;;;;;;;2.50;1.40;;;;;;;13.45;65.94;99779.84;4929821;28;20413;-96
2023/01/22 11:07:39;;;;;;;3.58;1.80;;;;;;;13.28;65.50;99777.47;4962397;28;20038;-95
2023/01/22 11:10:16;;;;;;;6.13;1.58;;;;;;;13.21;65.00;99755.28;4947353;28;20043;-95
2023/01/22 11:12:59;;;;;;;3.47;1.20;;;;;;;13.24;64.33;99770.16;4964546;28;20128;-95
2023/01/22 11:15:29;;;;;;;3.60;1.48;;;;;;;13.19;64.61;99787.22;4949350;28;20031;-95
2023/01/22 11:18:05;;;;;;;3.05;1.20;;;;;;;13.12;65.14;99763.16;4962930;28;20060;-93
2023/01/22 11:20:32;;;;;;;2.88;1.50;;;;;;;13.17;64.86;99772.34;4931304;28;20038;-92
2023/01/22 11:23:09;;;;;;;2.05;1.27;;;;;;;13.46;64.88;99791.47;4959020;29;20038;-95
2023/01/22 11:25:51;;;;;;;2.17;1.40;;;;;;;13.45;64.18;99785.25;4943075;29;20489;-95
2023/01/22 11:28:27;;;;;;;2.72;1.77;;;;;;;13.55;64.26;99800.66;4927361;29;20093;-95
2023/01/22 11:30:59;;;;;;;2.22;1.20;;;;;;;13.43;64.99;99783.94;4929391;29;20421;-96
2023/01/22 11:33:31;;;;;;;2.10;1.27;;;;;;;13.72;64.87;99806.50;4942856;29;20061;-94
2023/01/22 11:36:00;;;;;;;4.30;2.08;;;;;;;13.44;64.75;99785.53;4926936;29;20073;-95
2023/01/22 11:38:45;;;;;;;4.20;1.88;;;;;;;13.32;65.98;99781.25;4922496;28;20081;-95
2023/01/22 11:41:54;;;;;;;2.42;1.40;;;;;;;13.38;65.90;99802.88;4963266;28;20038;-94
2023/01/22 11:44:50;;;;;;;1.20;0.85;;;;;;;13.09;64.91;99800.75;4976251;28;20035;-95